createdAt,value
2022-10-02T00:01:56.545Z,13.39
2022-10-02T00:04:32.725Z,13.18
2022-10-02T00:07:06.281Z,13.12
2022-10-02T00:09:58.079Z,13.20
2022-10-02T00:12:29.337Z,13.13
2022-10-02T00:15:06.578Z,13.07
2022-10-02T00:17:38.118Z,13.28
2022-10-02T00:20:13.038Z,13.27
2022-10-02T00:22:58.871Z,13.34
2022-10-02T00:25:34.731Z,13.35
2022-10-02T00:28:25.323Z,13.40
2022-10-02T00:31:05.546Z,13.40
2022-10-02T00:33:59.021Z,13.37
2022-10-02T00:37:14.513Z,13.32
2022-10-02T00:40:09.371Z,13.28
2022-10-02T00:42:49.338Z,13.15
2022-10-02T00:45:34.819Z,13.17
2022-10-02T00:48:14.034Z,13.15
2022-10-02T00:51:02.239Z,13.03
2022-10-02T00:53:51.328Z,13.00
2022-10-02T00:56:37.440Z,12.92
2022-10-02T00:59:26.718Z,12.90
2022-10-02T01:01:54.150Z,12.82
2022-10-02T01:04:31.780Z,12.71
2022-10-02T01:06:59.966Z,12.59
2022-10-02T01:09:28.050Z,12.49
2022-10-02T01:11:56.087Z,12.47
2022-10-02T01:14:36.285Z,12.43
2022-10-02T01:17:07.215Z,12.34
2022-10-02T01:19:38.964Z,12.31
2022-10-02T01:22:24.415Z,12.32
2022-10-02T01:24:56.625Z,12.17
2022-10-02T01:27:25.565Z,12.13
2022-10-02T01:30:01.029Z,12.16
2022-10-02T01:32:31.851Z,12.11
2022-10-02T01:35:00.998Z,12.10
2022-10-02T01:37:32.821Z,12.10
2022-10-02T01:40:06.872Z,12.13
2022-10-02T01:42:34.591Z,12.05
2022-10-02T01:45:04.781Z,12.02
2022-10-02T01:48:07.099Z,12.05
2022-10-02T01:51:16.043Z,12.11
2022-10-02T01:54:01.907Z,12.06
2022-10-02T01:56:44.165Z,12.00
2022-10-02T01:59:38.915Z,12.01
2022-10-02T02:02:18.417Z,12.02
2022-10-02T02:04:51.798Z,12.07
2022-10-02T02:07:35.421Z,12.08
2022-10-02T02:10:17.395Z,12.07
2022-10-02T02:12:56.042Z,12.03
2022-10-02T02:15:35.134Z,12.00
2022-10-02T02:18:29.697Z,12.02
2022-10-02T02:21:05.186Z,12.09
2022-10-02T02:23:36.063Z,12.06
2022-10-02T02:26:09.153Z,12.06
2022-10-02T02:28:40.579Z,12.12
2022-10-02T02:31:11.938Z,12.09
2022-10-02T02:33:46.006Z,12.13
2022-10-02T02:36:18.153Z,12.09
2022-10-02T02:38:50.820Z,12.09
2022-10-02T02:41:26.740Z,12.10
2022-10-02T02:44:13.143Z,12.03
2022-10-02T02:47:12.894Z,11.99
2022-10-02T02:50:02.120Z,12.05
2022-10-02T02:52:37.904Z,12.05
2022-10-02T02:55:11.049Z,12.07
2022-10-02T02:57:45.484Z,12.04
2022-10-02T03:00:15.986Z,11.99
2022-10-02T03:02:43.538Z,11.94
2022-10-02T03:05:14.489Z,12.06
2022-10-02T03:07:54.623Z,12.01
2022-10-02T03:10:33.556Z,12.04
2022-10-02T03:13:16.918Z,12.09
2022-10-02T03:16:21.741Z,12.11
2022-10-02T03:19:36.776Z,12.11
2022-10-02T03:22:44.799Z,12.11
2022-10-02T03:25:24.260Z,12.07
2022-10-02T03:28:02.101Z,12.01
2022-10-02T03:30:31.727Z,11.95
2022-10-02T03:33:01.197Z,11.91
2022-10-02T03:35:30.086Z,11.96
2022-10-02T03:38:03.381Z,11.96
2022-10-02T03:40:31.001Z,11.99
2022-10-02T03:42:58.961Z,11.97
2022-10-02T03:45:50.001Z,11.94
2022-10-02T03:48:15.966Z,11.93
2022-10-02T03:50:44.035Z,11.90
2022-10-02T03:53:17.750Z,11.90
2022-10-02T03:56:08.784Z,11.99
2022-10-02T03:58:41.008Z,11.86
2022-10-02T04:01:17.105Z,11.87
2022-10-02T04:03:56.129Z,11.87
2022-10-02T04:06:40.627Z,11.88
2022-10-02T04:09:18.742Z,11.86
2022-10-02T04:12:04.151Z,11.94
2022-10-02T04:14:46.094Z,11.95
2022-10-02T04:17:20.734Z,11.97
2022-10-02T04:19:59.980Z,12.07
2022-10-02T04:22:33.483Z,12.03
2022-10-02T04:25:19.853Z,12.09
2022-10-02T04:27:53.329Z,12.06
2022-10-02T04:30:21.387Z,12.07
2022-10-02T04:32:49.411Z,12.04
2022-10-02T04:35:44.341Z,12.02
2022-10-02T04:38:11.746Z,12.12
2022-10-02T04:40:50.929Z,12.10
2022-10-02T04:43:49.840Z,12.15
2022-10-02T04:46:36.119Z,12.16
2022-10-02T04:49:22.184Z,12.22
2022-10-02T04:52:07.544Z,12.22
2022-10-02T04:54:56.662Z,12.20
2022-10-02T04:57:36.130Z,12.24
2022-10-02T05:00:06.971Z,12.17
2022-10-02T05:02:40.179Z,12.17
2022-10-02T05:05:26.087Z,12.10
2022-10-02T05:08:11.998Z,12.09
2022-10-02T05:11:13.374Z,12.11
2022-10-02T05:13:52.770Z,11.99
2022-10-02T05:16:29.381Z,11.98
2022-10-02T05:19:18.314Z,11.96
2022-10-02T05:22:15.363Z,11.93
2022-10-02T05:25:23.613Z,11.97
2022-10-02T05:28:26.498Z,11.98
2022-10-02T05:31:13.449Z,11.83
2022-10-02T05:34:06.268Z,11.92
2022-10-02T05:36:49.602Z,11.96
2022-10-02T05:39:43.951Z,12.05
2022-10-02T05:42:29.635Z,12.03
2022-10-02T05:45:25.277Z,12.04
2022-10-02T05:48:02.762Z,11.99
2022-10-02T05:50:35.229Z,12.00
2022-10-02T05:53:08.270Z,11.99
2022-10-02T05:56:02.363Z,11.94
2022-10-02T05:58:35.679Z,11.93
2022-10-02T06:01:21.619Z,12.04
2022-10-02T06:04:11.994Z,12.02
2022-10-02T06:06:48.871Z,12.02
2022-10-02T06:09:48.195Z,12.12
2022-10-02T06:12:30.727Z,12.09
2022-10-02T06:15:19.347Z,12.08
2022-10-02T06:17:55.869Z,12.07
2022-10-02T06:20:40.527Z,12.14
2022-10-02T06:23:15.250Z,12.06
2022-10-02T06:26:11.904Z,12.11
2022-10-02T06:28:44.232Z,11.96
2022-10-02T06:31:21.392Z,11.90
2022-10-02T06:33:48.950Z,11.88
2022-10-02T06:36:40.355Z,11.95
2022-10-02T06:39:58.631Z,11.85
2022-10-02T06:42:38.414Z,11.91
2022-10-02T06:45:06.367Z,11.85
2022-10-02T06:47:39.755Z,11.89
2022-10-02T06:50:39.623Z,11.90
2022-10-02T06:53:24.467Z,12.00
2022-10-02T06:56:10.145Z,11.95
2022-10-02T06:59:14.581Z,12.06
2022-10-02T07:02:04.942Z,11.98
2022-10-02T07:04:57.166Z,12.01
2022-10-02T07:07:39.898Z,11.97
2022-10-02T07:10:30.407Z,12.07
2022-10-02T07:13:07.357Z,12.00
2022-10-02T07:16:09.170Z,12.03
2022-10-02T07:18:50.940Z,12.11
2022-10-02T07:21:33.801Z,12.32
2022-10-02T07:24:11.235Z,12.46
2022-10-02T07:26:58.741Z,12.84
2022-10-02T07:29:34.873Z,13.00
2022-10-02T07:32:17.701Z,13.39
2022-10-02T07:35:12.799Z,13.94
2022-10-02T07:38:01.857Z,14.85
2022-10-02T07:40:47.894Z,15.54
2022-10-02T07:43:46.874Z,16.07
2022-10-02T07:46:19.225Z,16.22
2022-10-02T07:49:14.151Z,16.68
2022-10-02T07:51:51.059Z,17.39
2022-10-02T07:54:36.534Z,17.97
2022-10-02T07:57:16.822Z,18.68
2022-10-02T07:59:46.443Z,19.66
2022-10-02T08:02:28.906Z,20.76
2022-10-02T08:05:05.547Z,20.72
2022-10-02T08:07:33.370Z,19.99
2022-10-02T08:10:06.228Z,18.99
2022-10-02T08:12:45.790Z,18.14
2022-10-02T08:15:20.337Z,17.54
2022-10-02T08:18:22.739Z,17.10
2022-10-02T08:20:49.626Z,16.47
2022-10-02T08:23:36.747Z,16.76
2022-10-02T08:26:21.584Z,18.08
2022-10-02T08:28:56.971Z,18.80
2022-10-02T08:31:25.454Z,19.50
2022-10-02T08:33:53.119Z,19.98
2022-10-02T08:36:43.681Z,21.00
2022-10-02T08:39:53.303Z,22.45
2022-10-02T08:42:43.152Z,22.46
2022-10-02T08:45:47.543Z,22.07
2022-10-02T08:48:38.970Z,21.34
2022-10-02T08:51:49.526Z,20.92
2022-10-02T08:54:38.834Z,19.62
2022-10-02T08:57:28.049Z,18.69
2022-10-02T09:00:26.077Z,17.81
2022-10-02T09:02:57.309Z,17.44
2022-10-02T09:05:43.099Z,16.65
2022-10-02T09:08:58.535Z,16.58
2022-10-02T09:12:11.368Z,16.45
2022-10-02T09:14:51.529Z,15.97
2022-10-02T09:17:48.342Z,15.72
2022-10-02T09:20:33.978Z,15.42
2022-10-02T09:23:20.121Z,15.19
2022-10-02T09:26:24.750Z,15.06
2022-10-02T09:29:07.339Z,14.92
2022-10-02T09:31:53.631Z,15.13
2022-10-02T09:34:42.085Z,15.15
2022-10-02T09:37:28.439Z,15.14
2022-10-02T09:40:26.966Z,15.00
2022-10-02T09:43:05.984Z,14.86
2022-10-02T09:45:45.337Z,14.72
2022-10-02T09:48:49.995Z,14.66
2022-10-02T09:51:40.259Z,14.67
2022-10-02T09:54:32.396Z,14.50
2022-10-02T09:57:07.036Z,14.51
2022-10-02T09:59:58.996Z,14.50
2022-10-02T10:02:54.036Z,14.44
2022-10-02T10:05:42.859Z,14.39
2022-10-02T10:09:04.198Z,14.59
2022-10-02T10:11:49.282Z,14.61
2022-10-02T10:14:41.123Z,14.85
2022-10-02T10:17:45.778Z,14.92
2022-10-02T10:20:37.473Z,15.02
2022-10-02T10:23:51.366Z,15.16
2022-10-02T10:26:44.190Z,15.22
2022-10-02T10:29:21.471Z,15.05
2022-10-02T10:32:20.973Z,15.21
2022-10-02T10:35:06.987Z,15.45
2022-10-02T10:38:08.471Z,15.30
2022-10-02T10:40:58.814Z,15.21
2022-10-02T10:43:44.414Z,15.19
2022-10-02T10:46:33.134Z,15.08
2022-10-02T10:49:03.658Z,14.99
2022-10-02T10:51:43.458Z,15.35
2022-10-02T10:54:27.199Z,16.18
2022-10-02T10:57:04.943Z,16.36
2022-10-02T10:59:49.486Z,16.33
2022-10-02T11:02:53.316Z,16.31
2022-10-02T11:05:58.077Z,16.08
2022-10-02T11:08:47.371Z,15.92
2022-10-02T11:11:33.063Z,15.65
2022-10-02T11:14:06.626Z,15.53
2022-10-02T11:17:05.010Z,15.64
2022-10-02T11:20:00.718Z,15.87
2022-10-02T11:22:57.184Z,16.39
2022-10-02T11:25:52.853Z,17.25
2022-10-02T11:28:32.657Z,19.69
2022-10-02T11:31:27.659Z,21.25
2022-10-02T11:34:09.896Z,20.59
2022-10-02T11:36:43.284Z,19.71
2022-10-02T11:39:32.486Z,19.01
2022-10-02T11:42:16.635Z,18.13
2022-10-02T11:45:03.592Z,17.47
2022-10-02T11:47:59.774Z,17.09
2022-10-02T11:50:45.885Z,17.02
2022-10-02T11:53:22.254Z,17.08
2022-10-02T11:56:08.124Z,17.20
2022-10-02T11:58:42.134Z,17.03
2022-10-02T12:01:32.237Z,17.40
2022-10-02T12:04:04.247Z,17.77
2022-10-02T12:07:12.027Z,18.06
2022-10-02T12:09:45.254Z,18.63
2022-10-02T12:12:37.076Z,19.63
2022-10-02T12:15:10.823Z,21.27
2022-10-02T12:17:45.865Z,23.00
2022-10-02T12:21:03.986Z,24.27
2022-10-02T12:24:08.766Z,26.19
2022-10-02T12:26:59.017Z,27.47
2022-10-02T12:30:13.929Z,27.09
2022-10-02T12:32:51.080Z,27.17
2022-10-02T12:35:33.524Z,26.56
2022-10-02T12:38:26.997Z,24.41
2022-10-02T12:41:18.987Z,22.46
2022-10-02T12:43:55.665Z,20.76
2022-10-02T12:46:29.195Z,20.50
2022-10-02T12:49:25.397Z,19.03
2022-10-02T12:51:55.516Z,18.13
2022-10-02T12:55:00.211Z,17.80
2022-10-02T12:58:01.169Z,17.32
2022-10-02T13:00:47.254Z,17.08
2022-10-02T13:03:47.576Z,16.70
2022-10-02T13:07:01.397Z,16.58
2022-10-02T13:10:04.166Z,16.27
2022-10-02T13:12:50.975Z,16.30
2022-10-02T13:15:54.893Z,16.06
2022-10-02T13:18:22.916Z,15.85
2022-10-02T13:21:02.900Z,15.76
2022-10-02T13:23:42.036Z,15.60
2022-10-02T13:26:42.590Z,15.62
2022-10-02T13:29:40.639Z,15.50
2022-10-02T13:32:11.020Z,15.59
2022-10-02T13:35:19.940Z,15.25
2022-10-02T13:38:06.821Z,14.89
2022-10-02T13:40:43.362Z,14.81
2022-10-02T13:43:34.613Z,14.73
2022-10-02T13:46:17.979Z,14.67
2022-10-02T13:48:48.279Z,14.51
2022-10-02T13:51:53.945Z,14.54
2022-10-02T13:54:37.403Z,14.39
2022-10-02T13:57:22.178Z,14.36
2022-10-02T14:00:17.175Z,14.30
2022-10-02T14:03:09.099Z,14.33
2022-10-02T14:05:58.224Z,14.32
2022-10-02T14:08:46.859Z,14.29
2022-10-02T14:11:30.486Z,14.18
2022-10-02T14:14:09.792Z,14.16
2022-10-02T14:16:51.961Z,14.19
2022-10-02T14:19:33.903Z,14.17
2022-10-02T14:22:18.932Z,14.14
2022-10-02T14:25:15.313Z,14.10
2022-10-02T14:27:51.778Z,14.17
2022-10-02T14:30:22.628Z,14.09
2022-10-02T14:33:30.086Z,14.06
2022-10-02T14:36:11.811Z,13.99
2022-10-02T14:39:08.770Z,14.03
2022-10-02T14:42:09.265Z,14.02
2022-10-02T14:45:12.337Z,14.01
2022-10-02T14:51:11.054Z,13.96
2022-10-02T14:53:49.425Z,13.99
2022-10-02T14:56:28.817Z,13.97
2022-10-02T14:59:11.669Z,13.95
2022-10-02T15:01:55.541Z,13.91
2022-10-02T15:04:36.646Z,13.89
2022-10-02T15:07:12.322Z,13.94
2022-10-02T15:09:48.881Z,13.92
2022-10-02T15:12:30.033Z,13.82
2022-10-02T15:15:12.240Z,13.89
2022-10-02T15:17:56.894Z,13.87
2022-10-02T15:20:24.586Z,13.95
2022-10-02T15:23:06.924Z,13.90
2022-10-02T15:25:52.592Z,13.87
2022-10-02T15:28:38.465Z,13.82
2022-10-02T15:31:18.982Z,13.82
2022-10-02T15:34:12.817Z,13.78
2022-10-02T15:37:08.692Z,13.86
2022-10-02T15:39:44.203Z,13.93
2022-10-02T15:42:24.783Z,13.86
2022-10-02T15:45:11.646Z,13.90
2022-10-02T15:48:02.273Z,13.87
2022-10-02T15:50:57.651Z,13.92
2022-10-02T15:53:52.058Z,13.85
2022-10-02T15:56:34.634Z,13.82
2022-10-02T15:59:21.688Z,13.73
2022-10-02T16:02:16.196Z,13.73
2022-10-02T16:05:10.848Z,13.68
2022-10-02T16:07:56.801Z,13.63
2022-10-02T16:10:37.131Z,13.56
2022-10-02T16:13:13.540Z,13.54
2022-10-02T16:16:00.886Z,13.63
2022-10-02T16:19:01.291Z,13.64
2022-10-02T16:21:52.211Z,13.53
2022-10-02T16:25:18.409Z,13.61
2022-10-02T16:28:09.279Z,13.59
2022-10-02T16:30:45.980Z,13.47
2022-10-02T16:33:19.961Z,13.52
2022-10-02T16:36:17.875Z,13.48
2022-10-02T16:38:53.056Z,13.55
2022-10-02T16:41:38.853Z,13.51
2022-10-02T16:44:33.699Z,13.46
2022-10-02T16:47:13.825Z,13.50
2022-10-02T16:49:57.383Z,13.49
2022-10-02T16:52:33.626Z,13.49
2022-10-02T16:55:13.162Z,13.55
2022-10-02T16:57:45.444Z,13.48
2022-10-02T17:00:24.536Z,13.42
2022-10-02T17:03:21.641Z,13.47
2022-10-02T17:05:54.204Z,13.39
2022-10-02T17:08:41.758Z,13.39
2022-10-02T17:11:20.726Z,13.39
2022-10-02T17:14:16.583Z,13.46
2022-10-02T17:17:05.734Z,13.42
2022-10-02T17:19:56.210Z,13.41
2022-10-02T17:22:44.303Z,13.40
2022-10-02T17:25:27.143Z,13.40
2022-10-02T17:28:23.123Z,13.38
2022-10-02T17:30:59.348Z,13.39
2022-10-02T17:33:32.419Z,13.31
2022-10-02T17:36:20.239Z,13.37
2022-10-02T17:39:10.979Z,13.48
2022-10-02T17:41:42.629Z,13.45
2022-10-02T17:44:11.168Z,13.44
2022-10-02T17:46:49.777Z,13.43
2022-10-02T17:49:39.215Z,13.40
2022-10-02T17:52:46.911Z,13.50
2022-10-02T17:55:48.366Z,13.46
2022-10-02T17:58:37.084Z,13.42
2022-10-02T18:01:17.828Z,13.27
2022-10-02T18:04:03.686Z,13.29
2022-10-02T18:07:09.815Z,13.21
2022-10-02T18:09:56.802Z,13.11
2022-10-02T18:12:42.399Z,13.00
2022-10-02T18:15:37.878Z,12.93
2022-10-02T18:18:30.378Z,12.94
2022-10-02T18:21:20.670Z,12.87
2022-10-02T18:23:48.240Z,12.74
2022-10-02T18:26:42.309Z,12.68
2022-10-02T18:29:15.621Z,12.66
2022-10-02T18:32:19.386Z,12.61
2022-10-02T18:35:04.196Z,12.62
2022-10-02T18:37:58.286Z,12.62
2022-10-02T18:40:30.325Z,12.59
2022-10-02T18:43:31.021Z,12.64
2022-10-02T18:46:13.624Z,12.56
2022-10-02T18:48:59.950Z,12.59
2022-10-02T18:52:05.413Z,12.59
2022-10-02T18:54:41.788Z,12.60
2022-10-02T18:57:09.183Z,12.46
2022-10-02T18:59:45.777Z,12.49
2022-10-02T19:03:00.681Z,12.56
2022-10-02T19:05:35.463Z,12.50
2022-10-02T19:08:02.901Z,12.48
2022-10-02T19:10:33.161Z,12.46
2022-10-02T19:13:23.451Z,12.47
2022-10-02T19:15:53.476Z,12.45
2022-10-02T19:18:21.290Z,12.43
2022-10-02T19:21:14.313Z,12.51
2022-10-02T19:23:56.826Z,12.53
2022-10-02T19:26:40.749Z,12.46
2022-10-02T19:29:26.120Z,12.46
2022-10-02T19:31:56.697Z,12.43
2022-10-02T19:34:30.641Z,12.39
2022-10-02T19:37:04.336Z,12.44
2022-10-02T19:39:33.406Z,12.48
2022-10-02T19:42:07.937Z,12.53
2022-10-02T19:44:53.470Z,12.50
2022-10-02T19:47:45.706Z,12.52
2022-10-02T19:50:23.374Z,12.50
2022-10-02T19:52:58.323Z,12.53
2022-10-02T19:55:30.999Z,12.47
2022-10-02T19:58:09.226Z,12.50
2022-10-02T20:00:40.459Z,12.53
2022-10-02T20:03:20.056Z,12.52
2022-10-02T20:05:51.690Z,12.44
2022-10-02T20:08:36.908Z,12.50
2022-10-02T20:11:11.138Z,12.55
2022-10-02T20:13:49.845Z,12.51
2022-10-02T20:16:42.967Z,12.51
2022-10-02T20:19:39.399Z,12.65
2022-10-02T20:22:45.332Z,12.67
2022-10-02T20:25:42.294Z,12.74
2022-10-02T20:28:52.235Z,12.74
2022-10-02T20:31:40.248Z,12.70
2022-10-02T20:34:21.636Z,12.74
2022-10-02T20:37:04.000Z,12.72
2022-10-02T20:39:42.275Z,12.80
2022-10-02T20:42:20.091Z,12.75
2022-10-02T20:44:47.570Z,12.78
2022-10-02T20:47:50.103Z,12.87
2022-10-02T20:50:46.859Z,12.87
2022-10-02T20:53:52.581Z,12.86
2022-10-02T20:56:39.431Z,12.84
2022-10-02T20:59:27.079Z,12.89
2022-10-02T21:02:18.013Z,12.83
2022-10-02T21:05:10.926Z,12.89
2022-10-02T21:08:00.167Z,12.88
2022-10-02T21:10:45.632Z,12.86
2022-10-02T21:13:13.042Z,12.87
2022-10-02T21:16:17.566Z,12.96
2022-10-02T21:19:04.951Z,12.97
2022-10-02T21:21:38.304Z,12.90
2022-10-02T21:24:05.631Z,12.97
2022-10-02T21:26:55.378Z,13.02
2022-10-02T21:30:09.130Z,13.08
2022-10-02T21:32:49.390Z,13.05
2022-10-02T21:35:46.233Z,13.04
2022-10-02T21:38:44.526Z,13.13
2022-10-02T21:41:23.852Z,13.18
2022-10-02T21:44:10.289Z,13.24
2022-10-02T21:46:41.368Z,13.22
2022-10-02T21:49:47.427Z,13.35
2022-10-02T21:52:42.193Z,13.37
2022-10-02T21:55:46.774Z,13.39
2022-10-02T21:58:42.014Z,13.41
2022-10-02T22:02:07.750Z,13.48
2022-10-02T22:04:53.824Z,13.49
2022-10-02T22:07:35.519Z,13.44
2022-10-02T22:10:20.859Z,13.41
2022-10-02T22:13:23.882Z,13.50
2022-10-02T22:15:55.336Z,13.47
2022-10-02T22:18:52.978Z,13.54
2022-10-02T22:21:20.390Z,13.52
2022-10-02T22:24:09.187Z,13.58
2022-10-02T22:27:01.326Z,13.53
2022-10-02T22:29:48.576Z,13.59
2022-10-02T22:33:00.195Z,13.60
2022-10-02T22:35:36.014Z,13.66
2022-10-02T22:38:26.094Z,13.63
2022-10-02T22:41:02.522Z,13.62
2022-10-02T22:43:52.979Z,13.68
2022-10-02T22:46:47.041Z,13.65
2022-10-02T22:49:43.243Z,13.71
2022-10-02T22:52:20.708Z,13.70
2022-10-02T22:55:00.136Z,13.78
2022-10-02T22:57:33.459Z,13.78
2022-10-02T23:00:12.342Z,13.83
2022-10-02T23:03:02.461Z,13.91
2022-10-02T23:06:09.093Z,14.02
2022-10-02T23:08:36.505Z,14.03
2022-10-02T23:11:25.483Z,14.04
2022-10-02T23:14:00.164Z,14.09
2022-10-02T23:16:48.214Z,14.15
2022-10-02T23:19:38.832Z,14.14
2022-10-02T23:22:23.526Z,14.18
2022-10-02T23:25:18.506Z,14.27
2022-10-02T23:28:32.244Z,14.21
2022-10-02T23:31:11.584Z,14.21
2022-10-02T23:34:07.703Z,14.31
2022-10-02T23:36:45.997Z,14.34
2022-10-02T23:39:26.302Z,14.33
2022-10-02T23:41:58.489Z,14.31
2022-10-02T23:44:55.922Z,14.33
2022-10-02T23:47:37.358Z,14.31
2022-10-02T23:50:22.028Z,14.38
2022-10-02T23:53:01.328Z,14.43
2022-10-02T23:56:07.871Z,14.54
2022-10-02T23:59:00.721Z,14.47
